Time;durP1;ratioP1;P1;durP2;ratioP2;P2;SDS_P1;SDS_P2;PMS_P1;PMS_P2;Temp;Humidity;BMP_temperature;BMP_pressure;BME280_temperature;BME280_humidity;BME280_pressure;Samples;Min_cycle;Max_cycle;Signal;HPM_P1;HPM_P2
2023/01/12 00:01:29;;;;;;;19.95;3.40;;;8.50;99.90;;;;;;5072735;28;20087;-71
2023/01/12 00:03:55;;;;;;;20.48;3.58;;;8.50;99.90;;;;;;5072542;28;20068;-70
2023/01/12 00:06:21;;;;;;;19.45;3.95;;;8.50;99.90;;;;;;5072389;28;20417;-71
2023/01/12 00:08:48;;;;;;;19.73;3.75;;;8.40;99.90;;;;;;5072452;28;20051;-71
2023/01/12 00:11:15;;;;;;;16.13;3.72;;;8.40;99.90;;;;;;5055683;28;20037;-70
2023/01/12 00:13:40;;;;;;;18.85;3.90;;;8.40;99.90;;;;;;5072610;28;20044;-71
2023/01/12 00:18:56;;;;;;;21.95;3.05;;;8.40;99.90;;;;;;5072131;28;20131;-70
2023/01/12 00:21:21;;;;;;;17.85;3.15;;;8.40;99.90;;;;;;5072243;28;20438;-71
2023/01/12 00:23:47;;;;;;;18.80;3.70;;;8.40;99.90;;;;;;5072573;28;20037;-71
2023/01/12 00:26:13;;;;;;;19.88;3.83;;;8.30;99.90;;;;;;5072358;28;20085;-71
2023/01/12 00:28:38;;;;;;;18.10;3.75;;;8.30;99.90;;;;;;5072130;28;20036;-70
2023/01/12 00:31:07;;;;;;;23.48;3.95;;;8.30;99.90;;;;;;5072737;28;20041;-71
2023/01/12 00:33:38;;;;;;;18.42;3.42;;;8.20;99.90;;;;;;5072285;28;20044;-71
2023/01/12 00:36:11;;;;;;;23.95;3.97;;;8.30;99.90;;;;;;5072172;28;20166;-71
2023/01/12 00:38:37;;;;;;;18.85;3.65;;;8.20;99.90;;;;;;5072084;28;20036;-71
2023/01/12 00:41:11;;;;;;;22.73;3.53;;;8.20;99.90;;;;;;5072309;28;20036;-71
2023/01/12 00:46:31;;;;;;;24.30;3.58;;;8.30;99.90;;;;;;5072234;28;20049;-71
2023/01/12 00:48:57;;;;;;;20.73;3.45;;;8.40;99.90;;;;;;5071910;28;20409;-71
2023/01/12 00:51:23;;;;;;;25.17;4.43;;;8.30;99.90;;;;;;5072219;28;20540;-71
2023/01/12 00:53:48;;;;;;;23.15;3.83;;;8.30;99.90;;;;;;5072001;28;20036;-70
2023/01/12 00:56:14;;;;;;;19.13;4.15;;;8.40;99.90;;;;;;5072143;28;20041;-70
2023/01/12 00:58:39;;;;;;;18.95;3.60;;;8.40;99.90;;;;;;5071824;28;20454;-71
2023/01/12 01:01:08;;;;;;;18.10;3.63;;;8.40;99.90;;;;;;5075262;28;20047;-71
2023/01/12 01:03:34;;;;;;;19.08;3.17;;;8.40;99.90;;;;;;5075798;28;20521;-71
2023/01/12 01:06:05;;;;;;;24.38;3.95;;;8.40;99.90;;;;;;5076040;28;20509;-71
2023/01/12 01:08:30;;;;;;;22.58;3.35;;;8.40;99.90;;;;;;5075903;28;20040;-71
2023/01/12 01:11:09;;;;;;;21.60;3.22;;;8.50;99.90;;;;;;5075617;28;20045;-71
2023/01/12 01:13:36;;;;;;;21.00;3.40;;;8.50;99.90;;;;;;5075749;28;20040;-70
2023/01/12 01:16:04;;;;;;;21.40;4.45;;;8.50;99.90;;;;;;5076001;28;20094;-71
2023/01/12 01:18:31;;;;;;;23.17;4.03;;;8.50;99.90;;;;;;5075764;28;20524;-71
2023/01/12 01:20:56;;;;;;;26.73;4.05;;;8.50;99.90;;;;;;5075893;28;20071;-71
2023/01/12 01:23:24;;;;;;;23.00;3.90;;;8.50;99.90;;;;;;5075807;28;20091;-70
2023/01/12 01:25:51;;;;;;;18.20;3.53;;;8.50;99.90;;;;;;5075512;28;20465;-71
2023/01/12 01:28:16;;;;;;;18.05;3.40;;;8.50;99.90;;;;;;5075548;28;20504;-70
2023/01/12 01:30:43;;;;;;;20.80;3.53;;;8.40;99.90;;;;;;5075318;28;20086;-71
2023/01/12 01:33:08;;;;;;;24.50;3.80;;;8.50;99.90;;;;;;5075269;28;20044;-71
2023/01/12 01:35:37;;;;;;;24.65;3.63;;;8.40;99.90;;;;;;5058706;28;20044;-71
2023/01/12 01:38:03;;;;;;;21.88;4.38;;;8.40;99.90;;;;;;5075727;28;20044;-70
2023/01/12 01:40:30;;;;;;;23.63;3.55;;;8.40;99.90;;;;;;5075124;28;20044;-71
2023/01/12 01:42:56;;;;;;;24.33;4.63;;;8.40;99.90;;;;;;5075441;28;20049;-71
2023/01/12 01:45:21;;;;;;;23.40;3.70;;;8.40;99.90;;;;;;5075060;28;20039;-70
2023/01/12 01:47:56;;;;;;;21.60;3.45;;;8.30;99.90;;;;;;5074923;28;20045;-70
2023/01/12 01:50:28;;;;;;;26.48;3.70;;;8.40;99.90;;;;;;5074892;28;20041;-70
2023/01/12 01:53:07;;;;;;;23.42;3.88;;;8.40;99.90;;;;;;5075471;28;20037;-70
2023/01/12 01:55:53;;;;;;;27.13;5.03;;;8.40;99.90;;;;;;5074961;28;20036;-70
2023/01/12 01:58:23;;;;;;;20.77;3.55;;;8.40;99.90;;;;;;5074661;28;20056;-71
2023/01/12 02:00:51;;;;;;;21.77;3.72;;;8.40;99.90;;;;;;5074831;28;20048;-71
2023/01/12 02:03:17;;;;;;;23.90;3.90;;;8.40;99.90;;;;;;5075065;28;20425;-71
2023/01/12 02:05:45;;;;;;;25.67;3.90;;;8.40;99.90;;;;;;5075152;28;20529;-71
2023/01/12 02:08:44;;;;;;;18.23;3.50;;;8.40;99.90;;;;;;5057874;28;20072;-70
2023/01/12 02:16:19;;;;;;;27.92;4.72;;;8.50;99.90;;;;;;5073878;28;20076;-71
2023/01/12 02:17:11;;;;;;;25.13;4.72;;;8.40;99.90;;;;;;5074403;28;20040;-70
2023/01/12 02:19:39;;;;;;;21.45;3.60;;;8.40;99.90;;;;;;5074302;28;20090;-71
2023/01/12 02:22:32;;;;;;;23.80;3.55;;;8.40;99.90;;;;;;5057785;28;20413;-71
2023/01/12 02:25:07;;;;;;;30.17;4.60;;;8.40;99.90;;;;;;5074581;28;20048;-70
2023/01/12 02:27:49;;;;;;;23.10;4.75;;;8.40;99.90;;;;;;5074442;28;20048;-70
2023/01/12 02:30:59;;;;;;;19.60;4.18;;;8.40;99.90;;;;;;5074293;28;20056;-71
2023/01/12 02:33:44;;;;;;;30.58;4.30;;;8.40;99.90;;;;;;5074393;28;20036;-70
2023/01/12 02:36:22;;;;;;;27.65;4.28;;;8.40;99.90;;;;;;5074497;28;20032;-71
2023/01/12 02:39:04;;;;;;;29.73;4.60;;;8.30;99.90;;;;;;5075626;28;20090;-71
2023/01/12 02:44:45;;;;;;;28.80;5.72;;;8.40;99.90;;;;;;5075901;28;20084;-71
2023/01/12 02:47:18;;;;;;;29.45;5.60;;;8.40;99.90;;;;;;5074067;28;20102;-70
2023/01/12 02:49:49;;;;;;;29.55;4.47;;;8.40;99.90;;;;;;5073732;28;20460;-71
2023/01/12 02:52:18;;;;;;;28.55;4.43;;;8.40;99.90;;;;;;5074217;28;20041;-71
2023/01/12 02:54:47;;;;;;;20.52;4.07;;;8.50;99.90;;;;;;5074024;28;20115;-71
2023/01/12 02:57:14;;;;;;;23.08;4.63;;;8.50;99.90;;;;;;5073740;28;20122;-71
2023/01/12 02:59:44;;;;;;;21.55;4.68;;;8.50;99.90;;;;;;5073719;28;20048;-71
2023/01/12 03:02:13;;;;;;;33.03;5.30;;;8.50;99.90;;;;;;5073954;28;20040;-71
2023/01/12 03:04:40;;;;;;;25.40;4.80;;;8.50;99.90;;;;;;5074813;28;20508;-71
2023/01/12 03:07:18;;;;;;;27.35;4.40;;;8.50;99.90;;;;;;5058219;28;20041;-71
2023/01/12 03:09:49;;;;;;;22.73;4.20;;;8.50;99.90;;;;;;5074618;28;20051;-71
2023/01/12 03:12:28;;;;;;;25.65;4.63;;;8.50;99.90;;;;;;5074537;28;20040;-71
2023/01/12 03:14:55;;;;;;;25.55;4.80;;;8.50;99.90;;;;;;5074669;28;20046;-70
2023/01/12 03:17:38;;;;;;;27.75;4.30;;;8.50;99.90;;;;;;5074113;28;20400;-71
2023/01/12 03:20:16;;;;;;;23.55;4.68;;;8.60;99.90;;;;;;5074212;28;20493;-71
2023/01/12 03:22:42;;;;;;;18.88;3.50;;;8.60;99.90;;;;;;5056656;28;20040;-71
2023/01/12 03:25:14;;;;;;;22.75;4.35;;;8.70;99.90;;;;;;5073402;28;20093;-71
2023/01/12 03:27:47;;;;;;;23.50;4.70;;;8.70;99.90;;;;;;5057253;28;20047;-70
2023/01/12 03:30:21;;;;;;;20.88;4.00;;;8.60;99.90;;;;;;5056935;28;20085;-71
2023/01/12 03:32:47;;;;;;;27.73;4.93;;;8.70;99.90;;;;;;5073741;28;20048;-70
2023/01/12 03:35:13;;;;;;;22.35;4.13;;;8.70;99.90;;;;;;5073345;28;20064;-71
2023/01/12 03:37:42;;;;;;;22.58;4.05;;;8.70;99.90;;;;;;5073747;28;20544;-68
2023/01/12 03:40:17;;;;;;;18.00;3.75;;;8.70;99.90;;;;;;5072891;28;20193;-68
2023/01/12 03:42:56;;;;;;;16.38;3.95;;;8.70;99.90;;;;;;5072611;28;20505;-68
2023/01/12 03:45:46;;;;;;;17.60;3.40;;;8.70;99.90;;;;;;5072601;28;20048;-68
2023/01/12 03:48:30;;;;;;;15.85;3.05;;;8.70;99.90;;;;;;5072470;28;20044;-68
2023/01/12 03:51:19;;;;;;;13.15;2.90;;;8.70;99.90;;;;;;5072453;28;20036;-68
2023/01/12 03:53:48;;;;;;;15.35;3.70;;;8.70;99.90;;;;;;5072439;28;20040;-68
2023/01/12 03:56:16;;;;;;;13.57;2.75;;;8.60;99.90;;;;;;5072346;28;20397;-68
2023/01/12 03:58:43;;;;;;;13.27;2.38;;;8.60;99.90;;;;;;5072516;28;20033;-68
2023/01/12 04:01:08;;;;;;;16.63;3.35;;;8.60;99.90;;;;;;5072512;28;20062;-68
2023/01/12 04:03:34;;;;;;;8.70;2.42;;;8.60;99.90;;;;;;5072276;28;20497;-68
2023/01/12 04:05:59;;;;;;;14.57;3.10;;;8.70;99.90;;;;;;5072464;28;20052;-68
2023/01/12 04:08:25;;;;;;;14.90;3.25;;;8.60;99.90;;;;;;5072359;28;20505;-68
2023/01/12 04:10:51;;;;;;;15.93;2.80;;;8.60;99.90;;;;;;5072074;28;20040;-68
2023/01/12 04:13:16;;;;;;;11.00;2.85;;;8.60;99.90;;;;;;5072101;28;20127;-68
2023/01/12 04:15:42;;;;;;;12.63;2.60;;;8.70;99.90;;;;;;5072070;28;20040;-68
2023/01/12 04:18:12;;;;;;;11.65;2.35;;;8.70;99.90;;;;;;5072256;28;20041;-68
2023/01/12 04:20:38;;;;;;;13.00;2.53;;;8.60;99.90;;;;;;5072033;28;20424;-68
2023/01/12 04:23:05;;;;;;;9.60;2.95;;;8.70;99.90;;;;;;5072037;28;20048;-68
2023/01/12 04:25:31;;;;;;;10.98;2.40;;;8.70;99.90;;;;;;5071957;28;20059;-68
2023/01/12 04:28:01;;;;;;;12.73;2.88;;;8.70;99.90;;;;;;5071883;28;20052;-68
2023/01/12 04:30:29;;;;;;;12.43;1.98;;;8.70;99.90;;;;;;5071865;28;20529;-68
2023/01/12 04:32:56;;;;;;;10.00;2.17;;;8.70;99.90;;;;;;5071868;28;20044;-68
2023/01/12 04:35:25;;;;;;;10.40;2.30;;;8.70;99.90;;;;;;5071685;28;20051;-68
2023/01/12 04:37:51;;;;;;;6.82;1.50;;;8.70;99.90;;;;;;5072039;28;20040;-68
2023/01/12 04:40:18;;;;;;;9.57;1.75;;;8.80;99.90;;;;;;5071811;28;20076;-68
2023/01/12 04:43:00;;;;;;;9.55;1.73;;;8.70;99.90;;;;;;5071799;28;20071;-68
2023/01/12 04:45:32;;;;;;;6.43;1.53;;;8.70;99.90;;;;;;5071835;28;20037;-68
2023/01/12 04:48:10;;;;;;;9.35;2.00;;;8.60;99.90;;;;;;5071628;28;20544;-68
2023/01/12 04:50:37;;;;;;;8.40;2.00;;;8.70;99.90;;;;;;5071564;28;20494;-68
2023/01/12 04:53:04;;;;;;;9.00;1.80;;;8.60;99.90;;;;;;5071716;28;20047;-68
2023/01/12 04:55:30;;;;;;;9.85;1.73;;;8.60;99.90;;;;;;5071682;28;20041;-68
2023/01/12 04:57:56;;;;;;;8.15;1.70;;;8.60;99.90;;;;;;5071592;28;20040;-68
2023/01/12 05:00:23;;;;;;;8.60;1.60;;;8.70;99.90;;;;;;5071875;28;20039;-68
2023/01/12 05:02:49;;;;;;;10.82;2.20;;;8.60;99.90;;;;;;5071605;28;20068;-68
2023/01/12 05:05:15;;;;;;;6.60;1.60;;;8.60;99.90;;;;;;5071606;28;20040;-68
2023/01/12 05:10:21;;;;;;;7.18;1.60;;;8.60;99.90;;;;;;5071748;28;20049;-68
2023/01/12 05:10:29;;;;;;;7.63;1.95;;;8.60;99.90;;;;;;5071232;28;20498;-68
2023/01/12 05:12:55;;;;;;;8.35;1.63;;;8.50;99.90;;;;;;5071515;28;20028;-68
2023/01/12 05:15:21;;;;;;;5.63;1.13;;;8.50;99.90;;;;;;5071507;28;20051;-68
2023/01/12 05:17:47;;;;;;;5.55;1.27;;;8.50;99.90;;;;;;5071671;28;20040;-68
2023/01/12 05:20:12;;;;;;;7.55;1.48;;;8.50;99.90;;;;;;5071424;28;20409;-68
2023/01/12 05:22:38;;;;;;;5.88;1.50;;;8.40;99.90;;;;;;5071407;28;20181;-68
2023/01/12 05:25:04;;;;;;;5.15;1.33;;;8.40;99.90;;;;;;5071389;28;20041;-68
2023/01/12 05:27:30;;;;;;;6.35;1.70;;;8.40;99.90;;;;;;5071297;28;20052;-68
2023/01/12 05:29:58;;;;;;;7.20;1.48;;;8.40;99.90;;;;;;5071268;28;20040;-68
2023/01/12 05:32:24;;;;;;;4.68;1.40;;;8.40;99.90;;;;;;5072134;28;20049;-68
2023/01/12 05:34:50;;;;;;;7.85;1.60;;;8.40;99.90;;;;;;5071565;28;20111;-68
2023/01/12 05:37:15;;;;;;;4.43;1.10;;;8.40;99.90;;;;;;5071207;28;20120;-68
2023/01/12 05:39:41;;;;;;;7.20;1.40;;;8.40;99.90;;;;;;5071290;28;20044;-68
2023/01/12 05:44:50;;;;;;;4.85;1.17;;;8.30;99.90;;;;;;5071213;28;20052;-69
2023/01/12 05:47:16;;;;;;;6.60;1.45;;;8.30;99.90;;;;;;5074327;28;20048;-68
2023/01/12 05:49:41;;;;;;;3.95;1.17;;;8.30;99.90;;;;;;5074581;28;20044;-68
2023/01/12 05:52:07;;;;;;;6.22;1.25;;;8.40;99.90;;;;;;5074681;28;20059;-68
2023/01/12 05:54:33;;;;;;;6.57;1.35;;;8.30;99.90;;;;;;5075516;28;20064;-68
2023/01/12 05:56:58;;;;;;;9.48;1.52;;;8.30;99.90;;;;;;5058001;28;20444;-68
2023/01/12 05:59:24;;;;;;;4.43;1.30;;;8.30;99.90;;;;;;5074586;28;20040;-68
2023/01/12 06:01:49;;;;;;;4.28;1.35;;;8.40;99.90;;;;;;5074547;28;20036;-68
2023/01/12 06:04:15;;;;;;;4.25;1.33;;;8.40;99.90;;;;;;5074554;28;20052;-68
2023/01/12 06:06:41;;;;;;;8.95;1.55;;;8.40;99.90;;;;;;5074507;28;20048;-68
2023/01/12 06:09:06;;;;;;;5.00;1.00;;;8.50;99.90;;;;;;5074616;28;20093;-68
2023/01/12 06:14:16;;;;;;;6.10;1.25;;;8.50;99.90;;;;;;5074441;28;20485;-68
2023/01/12 06:16:42;;;;;;;6.82;1.20;;;8.50;99.90;;;;;;5074325;28;20040;-68
2023/01/12 06:19:09;;;;;;;6.18;1.40;;;8.50;99.90;;;;;;5074228;28;20037;-68
2023/01/12 06:21:36;;;;;;;4.88;1.13;;;8.50;99.90;;;;;;5074345;28;20051;-68
2023/01/12 06:24:02;;;;;;;5.50;1.30;;;8.50;99.90;;;;;;5074168;28;20490;-68
2023/01/12 06:26:27;;;;;;;7.40;1.10;;;8.50;99.90;;;;;;5074136;28;20124;-68
2023/01/12 06:28:53;;;;;;;4.70;0.98;;;8.60;99.90;;;;;;5074064;28;20094;-68
2023/01/12 06:31:19;;;;;;;5.22;1.30;;;8.60;99.90;;;;;;5074023;28;20064;-67
2023/01/12 06:33:44;;;;;;;5.57;1.13;;;8.60;99.90;;;;;;5074251;28;20423;-68
2023/01/12 06:36:10;;;;;;;3.60;0.90;;;8.60;99.90;;;;;;5073957;28;20142;-68
2023/01/12 06:38:36;;;;;;;5.63;1.35;;;8.70;99.90;;;;;;5074101;28;20040;-68
2023/01/12 06:42:27;;;;;;;4.55;1.00;;;8.70;99.90;;;;;;5073891;28;20055;-68
2023/01/12 06:43:53;;;;;;;4.15;0.95;;;8.70;99.90;;;;;;5073759;28;20052;-67
2023/01/12 06:46:19;;;;;;;1.98;0.90;;;8.70;99.90;;;;;;5073706;28;20041;-68
2023/01/12 06:48:44;;;;;;;3.47;0.82;;;8.70;99.90;;;;;;5073525;28;20048;-68
2023/01/12 06:51:10;;;;;;;3.65;0.95;;;8.80;99.90;;;;;;5073608;28;20043;-68
2023/01/12 06:53:35;;;;;;;1.90;0.80;;;8.90;99.90;;;;;;5073683;28;20405;-68
2023/01/12 06:56:01;;;;;;;3.50;0.93;;;8.80;99.90;;;;;;5073571;28;20079;-67
2023/01/12 06:58:26;;;;;;;3.15;1.13;;;8.90;99.90;;;;;;5072254;28;20040;-68
2023/01/12 07:00:52;;;;;;;2.42;0.95;;;8.90;99.90;;;;;;5073489;28;20090;-67
2023/01/12 07:03:19;;;;;;;3.63;0.90;;;8.90;99.90;;;;;;5073672;28;20044;-68
2023/01/12 07:05:45;;;;;;;2.42;0.90;;;8.90;99.90;;;;;;5073383;28;20120;-67
2023/01/12 07:08:14;;;;;;;2.50;0.90;;;8.90;99.90;;;;;;5073274;28;20119;-68
2023/01/12 07:10:41;;;;;;;2.17;0.90;;;8.90;99.90;;;;;;5073272;28;20408;-67
2023/01/12 07:13:06;;;;;;;4.10;1.23;;;8.90;99.90;;;;;;5073236;28;20045;-68
2023/01/12 07:15:32;;;;;;;2.90;0.95;;;9.00;99.90;;;;;;5073151;28;20036;-67
2023/01/12 07:17:58;;;;;;;1.40;0.90;;;9.00;99.90;;;;;;5073063;28;20036;-67
2023/01/12 07:20:24;;;;;;;1.90;0.85;;;9.00;99.90;;;;;;5073042;28;20072;-67
2023/01/12 07:22:49;;;;;;;1.58;0.90;;;9.00;99.90;;;;;;5073300;28;20043;-67
2023/01/12 07:25:16;;;;;;;2.33;1.20;;;9.00;99.90;;;;;;5073235;28;20045;-67
2023/01/12 07:27:52;;;;;;;2.47;1.13;;;9.00;99.90;;;;;;5072840;28;20044;-68
2023/01/12 07:30:20;;;;;;;2.30;1.33;;;9.00;99.90;;;;;;5072916;28;20090;-67
2023/01/12 07:32:46;;;;;;;3.88;1.77;;;9.10;99.90;;;;;;5072824;28;20046;-67
2023/01/12 07:35:12;;;;;;;4.47;1.80;;;9.10;99.90;;;;;;5073031;28;20072;-67
2023/01/12 07:37:37;;;;;;;5.05;2.22;;;9.00;99.90;;;;;;5072674;28;20511;-67
2023/01/12 07:40:03;;;;;;;2.92;2.10;;;9.10;99.90;;;;;;5072666;28;20114;-67
2023/01/12 07:42:29;;;;;;;4.47;2.42;;;9.10;99.90;;;;;;5072897;28;20127;-67
2023/01/12 07:44:55;;;;;;;4.82;2.92;;;9.10;99.90;;;;;;5072556;28;20504;-68
2023/01/12 07:47:20;;;;;;;6.13;2.83;;;9.10;99.90;;;;;;5072527;28;20086;-68
2023/01/12 07:49:46;;;;;;;5.13;3.10;;;9.10;99.90;;;;;;5072317;28;20041;-67
2023/01/12 07:52:12;;;;;;;5.70;2.85;;;9.10;99.90;;;;;;5073751;28;20032;-67
2023/01/12 07:54:38;;;;;;;7.85;2.67;;;9.20;99.90;;;;;;5072398;28;20416;-67
2023/01/12 07:57:07;;;;;;;5.53;2.55;;;9.20;99.90;;;;;;5072371;28;20032;-67
2023/01/12 07:59:33;;;;;;;9.15;2.85;;;9.20;99.90;;;;;;5072552;28;20485;-67
2023/01/12 08:01:58;;;;;;;6.93;2.63;;;9.20;99.90;;;;;;5072309;28;20047;-67
2023/01/12 08:04:24;;;;;;;6.75;2.80;;;9.30;99.90;;;;;;5072279;28;20048;-67
2023/01/12 08:06:50;;;;;;;10.10;2.70;;;9.30;99.90;;;;;;5072254;28;20048;-67
2023/01/12 08:09:15;;;;;;;12.00;3.15;;;9.30;99.90;;;;;;5071707;28;20037;-67
2023/01/12 08:11:41;;;;;;;12.65;2.70;;;9.40;99.90;;;;;;5072169;28;20041;-67
2023/01/12 08:14:07;;;;;;;18.73;3.53;;;9.40;99.90;;;;;;5072191;28;20048;-67
2023/01/12 08:16:38;;;;;;;18.88;3.28;;;9.50;99.90;;;;;;5073367;28;20039;-67
2023/01/12 08:19:13;;;;;;;21.88;3.20;;;9.60;99.90;;;;;;5072090;28;20040;-67
2023/01/12 08:21:44;;;;;;;17.15;3.65;;;9.60;99.90;;;;;;5072066;28;20041;-67
2023/01/12 08:24:15;;;;;;;21.55;3.60;;;9.80;99.90;;;;;;5072519;28;20044;-67
2023/01/12 08:26:44;;;;;;;32.88;5.70;;;9.80;99.90;;;;;;5072761;28;20059;-67
2023/01/12 08:29:40;;;;;;;34.00;6.13;;;9.80;99.90;;;;;;5072038;28;20040;-67
2023/01/12 08:32:07;;;;;;;37.80;5.82;;;9.90;99.90;;;;;;5072336;28;20033;-67
2023/01/12 08:34:37;;;;;;;32.08;5.35;;;10.00;99.90;;;;;;5071872;28;20504;-67
2023/01/12 08:37:06;;;;;;;29.15;5.43;;;10.00;99.90;;;;;;5072168;28;20047;-67
2023/01/12 08:39:34;;;;;;;34.88;4.82;;;10.10;99.90;;;;;;5071816;28;20075;-68
2023/01/12 08:42:00;;;;;;;34.90;5.35;;;10.10;99.90;;;;;;5073083;28;20098;-68
2023/01/12 08:44:31;;;;;;;29.35;5.07;;;10.20;99.90;;;;;;5071769;28;20440;-67
2023/01/12 08:46:56;;;;;;;30.13;4.63;;;10.20;99.90;;;;;;5071791;28;20040;-67
2023/01/12 08:49:25;;;;;;;34.10;5.07;;;10.20;99.90;;;;;;5071428;28;20042;-67
2023/01/12 08:51:51;;;;;;;34.88;5.22;;;10.20;99.90;;;;;;5071699;28;20431;-68
2023/01/12 08:54:18;;;;;;;33.90;5.03;;;10.20;99.90;;;;;;5071671;28;20037;-68
2023/01/12 08:56:44;;;;;;;28.77;4.93;;;10.30;99.90;;;;;;5071911;28;20111;-72
2023/01/12 08:59:11;;;;;;;26.73;4.97;;;10.30;99.90;;;;;;5071841;28;20037;-72
2023/01/12 09:01:36;;;;;;;36.80;4.90;;;10.30;99.90;;;;;;5071618;28;20116;-68
2023/01/12 09:04:02;;;;;;;37.25;5.75;;;10.30;99.90;;;;;;5071587;28;20068;-68
2023/01/12 09:06:34;;;;;;;35.05;5.88;;;10.40;99.90;;;;;;5071547;28;20093;-68
2023/01/12 09:09:03;;;;;;;27.80;4.97;;;10.40;99.90;;;;;;5071527;28;20052;-67
2023/01/12 09:11:30;;;;;;;21.30;3.65;;;10.40;99.90;;;;;;5071427;28;20059;-67
2023/01/12 09:13:57;;;;;;;28.33;4.53;;;10.40;99.90;;;;;;5071433;28;20167;-67
2023/01/12 09:16:28;;;;;;;25.75;4.82;;;10.40;99.90;;;;;;5071428;28;20048;-68
2023/01/12 09:18:54;;;;;;;23.65;4.50;;;10.40;99.90;;;;;;5071442;28;20032;-68
2023/01/12 09:21:21;;;;;;;32.45;5.47;;;10.40;99.90;;;;;;5074564;28;20067;-68
2023/01/12 09:23:51;;;;;;;31.15;5.15;;;10.40;99.90;;;;;;5075601;28;20090;-68
2023/01/12 09:26:30;;;;;;;28.13;5.07;;;10.50;99.90;;;;;;5075286;28;20051;-67
2023/01/12 09:29:00;;;;;;;28.40;4.70;;;10.50;99.90;;;;;;5075430;28;20040;-68
2023/01/12 09:31:28;;;;;;;31.67;4.90;;;10.60;99.90;;;;;;5075073;28;20490;-67
2023/01/12 09:33:54;;;;;;;26.80;4.22;;;10.60;99.90;;;;;;5075956;28;20101;-68
2023/01/12 09:36:39;;;;;;;26.60;4.30;;;10.60;99.90;;;;;;5075042;28;20037;-68
2023/01/12 09:39:08;;;;;;;23.40;4.47;;;10.70;99.90;;;;;;5075004;28;20090;-68
2023/01/12 09:47:35;;;;;;;25.50;4.57;;;10.70;99.90;;;;;;5074888;28;20485;-68
2023/01/12 09:50:10;;;;;;;24.45;3.88;;;10.80;99.90;;;;;;5074638;28;20086;-67
2023/01/12 09:52:44;;;;;;;21.77;4.30;;;10.70;99.90;;;;;;5075142;28;20036;-67
2023/01/12 09:55:16;;;;;;;27.88;4.45;;;10.80;99.90;;;;;;5075004;28;20032;-67
2023/01/12 09:58:19;;;;;;;26.60;4.78;;;10.80;99.90;;;;;;5074961;28;20044;-66
2023/01/12 10:00:50;;;;;;;24.92;4.03;;;10.80;99.90;;;;;;5074914;28;20070;-68
2023/01/12 10:03:34;;;;;;;23.77;5.00;;;10.80;99.90;;;;;;5074579;28;20044;-68
2023/01/12 10:06:00;;;;;;;29.80;5.38;;;10.80;99.90;;;;;;5074568;28;20123;-68
2023/01/12 10:08:35;;;;;;;24.73;3.90;;;10.80;99.90;;;;;;5057707;28;20570;-69
2023/01/12 10:11:38;;;;;;;21.05;3.67;;;10.80;99.90;;;;;;5074417;28;20558;-69
2023/01/12 10:14:25;;;;;;;28.83;5.05;;;10.90;99.90;;;;;;5074706;28;20447;-68
2023/01/12 10:17:24;;;;;;;29.70;4.40;;;10.90;99.90;;;;;;5074379;28;20036;-68
2023/01/12 10:20:14;;;;;;;24.08;3.92;;;11.00;99.90;;;;;;5074290;28;20047;-68
2023/01/12 10:22:47;;;;;;;30.23;5.40;;;11.00;99.90;;;;;;5074541;28;20044;-68
2023/01/12 10:25:37;;;;;;;24.98;4.38;;;11.00;99.90;;;;;;5074224;28;20048;-68
2023/01/12 10:28:20;;;;;;;24.55;4.30;;;11.10;99.90;;;;;;5074372;28;20158;-68
2023/01/12 10:30:46;;;;;;;22.63;3.63;;;11.20;99.90;;;;;;5057669;28;20080;-68
2023/01/12 10:33:20;;;;;;;21.30;5.35;;;11.30;99.90;;;;;;5073686;28;20068;-68
2023/01/12 10:35:54;;;;;;;22.38;4.32;;;11.40;99.90;;;;;;5074249;28;20044;-68
2023/01/12 10:38:23;;;;;;;21.52;4.15;;;11.50;99.90;;;;;;5073910;28;20485;-68
2023/01/12 10:41:18;;;;;;;21.08;4.03;;;11.60;99.90;;;;;;5074101;28;20397;-68
2023/01/12 10:43:58;;;;;;;19.90;3.75;;;11.80;99.90;;;;;;5073829;28;20052;-67
2023/01/12 10:46:34;;;;;;;19.98;3.70;;;11.70;99.90;;;;;;5074025;28;20044;-68
2023/01/12 10:49:14;;;;;;;21.02;4.15;;;11.70;99.90;;;;;;5073577;28;20083;-68
2023/01/12 10:51:56;;;;;;;19.35;3.22;;;11.70;99.90;;;;;;5073925;28;20098;-68
2023/01/12 10:54:25;;;;;;;18.30;3.30;;;11.60;99.90;;;;;;5073647;28;20066;-71
2023/01/12 10:56:57;;;;;;;17.48;3.15;;;11.50;99.90;;;;;;5073830;28;20101;-68
2023/01/12 10:59:28;;;;;;;20.00;3.73;;;11.50;99.90;;;;;;5073566;28;20029;-68
2023/01/12 11:02:06;;;;;;;15.77;3.30;;;11.40;99.90;;;;;;5073508;28;20455;-68
2023/01/12 11:04:50;;;;;;;15.77;4.07;;;11.40;99.90;;;;;;5073396;28;20048;-68
2023/01/12 11:07:25;;;;;;;25.38;4.25;;;11.30;99.90;;;;;;5073547;28;20056;-69
2023/01/12 11:09:52;;;;;;;21.83;4.25;;;11.30;99.90;;;;;;5074081;28;20090;-69
2023/01/12 11:12:22;;;;;;;21.55;3.90;;;11.30;99.90;;;;;;5073302;28;20052;-68
2023/01/12 11:14:56;;;;;;;24.95;3.90;;;11.30;99.90;;;;;;5073299;28;20048;-68
2023/01/12 11:17:37;;;;;;;23.92;4.20;;;11.30;99.90;;;;;;5073387;28;20044;-68
2023/01/12 11:20:21;;;;;;;26.05;5.65;;;11.40;99.90;;;;;;5073359;28;20084;-68
2023/01/12 11:22:53;;;;;;;22.63;4.05;;;11.40;99.90;;;;;;5073189;28;20041;-68
2023/01/12 11:25:24;;;;;;;23.10;4.55;;;11.40;99.90;;;;;;5073018;28;20054;-68
2023/01/12 11:28:16;;;;;;;30.42;4.47;;;11.40;99.90;;;;;;5072874;28;20037;-68
2023/01/12 11:30:59;;;;;;;23.77;4.70;;;11.40;99.90;;;;;;5056273;28;20059;-68
2023/01/12 11:33:37;;;;;;;22.63;3.67;;;11.40;99.90;;;;;;5073153;28;20044;-68
2023/01/12 11:36:18;;;;;;;21.33;3.75;;;11.40;99.90;;;;;;5072833;28;20515;-68
2023/01/12 11:38:46;;;;;;;26.20;4.22;;;11.40;99.90;;;;;;5072716;28;20028;-68
2023/01/12 11:41:28;;;;;;;22.88;4.15;;;11.40;99.90;;;;;;5072697;28;20055;-68
2023/01/12 11:44:19;;;;;;;25.65;3.28;;;11.50;99.90;;;;;;5072071;28;20036;-68
2023/01/12 11:46:48;;;;;;;20.83;3.60;;;11.50;99.90;;;;;;5072896;28;20040;-68
2023/01/12 11:49:38;;;;;;;26.13;4.10;;;11.50;99.90;;;;;;5072524;28;20063;-68
2023/01/12 11:52:07;;;;;;;15.38;3.60;;;11.60;99.90;;;;;;5072785;28;20048;-68
2023/01/12 11:54:35;;;;;;;17.50;3.50;;;11.50;99.90;;;;;;5072450;28;20115;-68
2023/01/12 11:57:23;;;;;;;21.60;3.55;;;11.50;99.90;;;;;;5072419;28;20040;-68
2023/01/12 12:00:17;;;;;;;23.02;4.00;;;11.50;99.90;;;;;;5072352;28;20055;-68
2023/01/12 12:03:26;;;;;;;23.65;3.50;;;11.50;99.90;;;;;;5066723;28;20501;-68
2023/01/12 12:06:30;;;;;;;19.83;4.53;;;11.50;99.90;;;;;;5067380;28;20488;-68
2023/01/12 12:09:23;;;;;;;20.80;3.38;;;11.50;99.90;;;;;;5072182;28;20044;-68
2023/01/12 12:12:00;;;;;;;22.92;3.97;;;11.50;99.90;;;;;;5072460;28;20052;-68
2023/01/12 12:14:43;;;;;;;25.73;3.80;;;11.50;99.90;;;;;;5072467;28;20074;-69
2023/01/12 12:17:12;;;;;;;;;;;11.50;99.90;;;;;;5072568;28;20051;-68
2023/01/12 12:20:12;;;;;;;22.25;3.40;;;11.50;99.90;;;;;;5072037;28;19917;-68
2023/01/12 12:22:59;;;;;;;17.10;4.10;;;11.50;99.90;;;;;;5072098;28;20068;-68
2023/01/12 12:25:34;;;;;;;23.42;3.97;;;11.40;99.90;;;;;;5073131;28;20044;-67
2023/01/12 12:28:11;;;;;;;21.27;3.83;;;11.40;99.90;;;;;;5071940;28;20074;-67
2023/01/12 12:31:05;;;;;;;24.42;4.68;;;11.40;99.90;;;;;;5072046;28;20088;-67
2023/01/12 12:33:34;;;;;;;22.05;3.58;;;11.40;99.90;;;;;;5071905;28;20044;-67
2023/01/12 12:36:16;;;;;;;20.23;3.75;;;11.40;99.90;;;;;;5071891;28;20044;-67
2023/01/12 12:38:59;;;;;;;23.08;4.38;;;11.40;99.90;;;;;;5071786;28;20524;-67
2023/01/12 12:47:54;;;;;;;20.90;3.50;;;11.30;99.90;;;;;;5071736;28;20390;-68
2023/01/12 12:50:40;;;;;;;22.27;3.80;;;11.20;99.90;;;;;;5071774;28;20040;-67
2023/01/12 12:53:25;;;;;;;29.33;4.28;;;11.20;99.90;;;;;;5071747;28;20068;-68
2023/01/12 12:55:53;;;;;;;21.38;4.00;;;11.10;99.90;;;;;;5074621;28;20037;-67
2023/01/12 12:58:21;;;;;;;23.55;4.82;;;11.10;99.90;;;;;;5075784;28;20128;-67
2023/01/12 13:00:51;;;;;;;24.75;5.35;;;11.10;99.90;;;;;;5076130;28;20086;-67
2023/01/12 13:03:39;;;;;;;28.83;4.30;;;11.10;99.90;;;;;;5075738;28;20076;-67
2023/01/12 13:06:27;;;;;;;21.70;4.15;;;11.10;99.90;;;;;;5069364;28;20052;-67
2023/01/12 13:09:16;;;;;;;26.48;4.43;;;11.10;99.90;;;;;;5075594;28;20149;-67
2023/01/12 13:11:59;;;;;;;27.65;4.78;;;11.10;99.90;;;;;;5070204;28;20452;-68
2023/01/12 13:14:25;;;;;;;26.52;4.35;;;11.10;99.90;;;;;;5075607;28;20049;-68
2023/01/12 13:16:52;;;;;;;30.60;4.53;;;11.10;99.90;;;;;;5075498;28;20044;-68
2023/01/12 13:19:43;;;;;;;28.40;6.10;;;11.20;99.90;;;;;;5075348;28;20411;-67
2023/01/12 13:22:36;;;;;;;21.35;4.05;;;11.30;99.90;;;;;;5075403;28;20044;-67
2023/01/12 13:25:23;;;;;;;22.55;4.53;;;11.30;99.90;;;;;;5075359;28;20036;-68
2023/01/12 13:28:10;;;;;;;29.15;4.50;;;11.30;99.90;;;;;;5075061;28;20413;-68
2023/01/12 13:30:48;;;;;;;25.52;4.57;;;11.30;99.90;;;;;;5075178;28;20131;-67
2023/01/12 13:33:13;;;;;;;36.90;5.28;;;11.30;99.90;;;;;;5075194;28;20401;-67
2023/01/12 13:35:39;;;;;;;24.40;4.55;;;11.30;99.90;;;;;;5075170;28;20040;-67
2023/01/12 13:38:13;;;;;;;27.85;4.95;;;11.30;99.90;;;;;;5075258;28;20044;-68
2023/01/12 13:40:40;;;;;;;29.75;4.53;;;11.40;99.90;;;;;;5075067;28;20064;-67